createdAt,value
2023-04-29T05:05:58.759Z,10.40
2023-04-29T05:08:27.074Z,8.40
2023-04-29T06:21:16.405Z,12.10
2023-04-29T06:23:44.004Z,11.10
2023-04-29T06:26:17.195Z,11.50
2023-04-29T06:31:13.830Z,11.40
2023-04-29T06:33:42.860Z,11.60
2023-04-29T06:36:10.912Z,11.90
2023-04-29T06:39:10.728Z,11.80
2023-04-29T06:42:04.463Z,12.20
2023-04-29T06:44:47.617Z,12.50
2023-04-29T06:47:33.816Z,13.10
2023-04-29T06:52:44.638Z,12.50
2023-04-29T07:00:11.760Z,12.90
2023-04-29T07:02:39.884Z,12.30
2023-04-29T07:05:07.928Z,13.40
2023-04-29T07:10:04.263Z,13.20
2023-04-29T07:15:00.095Z,12.50
2023-04-29T07:17:30.321Z,13.50
2023-04-29T07:19:58.004Z,12.40
2023-04-29T07:24:57.292Z,13.00
2023-04-29T07:29:53.523Z,12.80
2023-04-29T07:32:21.376Z,12.30
2023-04-29T07:34:49.452Z,13.30
2023-04-29T07:37:17.237Z,13.50
2023-04-29T07:39:44.885Z,13.10
2023-04-29T07:42:13.480Z,13.80
2023-04-29T07:44:42.146Z,12.80
2023-04-29T07:47:09.844Z,13.90
2023-04-29T07:49:37.596Z,13.40
2023-04-29T07:52:06.404Z,13.20
2023-04-29T07:59:32.160Z,13.20
2023-04-29T08:01:59.901Z,13.00
2023-04-29T08:04:28.074Z,13.10
2023-04-29T08:07:07.102Z,12.80
2023-04-29T08:09:36.953Z,13.10
2023-04-29T08:12:05.714Z,13.20
2023-04-29T08:14:32.979Z,13.10
2023-04-29T08:17:01.007Z,12.70
2023-04-29T08:19:28.525Z,12.30
2023-04-29T08:21:56.300Z,13.00
2023-04-29T08:26:52.560Z,12.60
2023-04-29T08:29:20.758Z,12.70
2023-04-29T08:36:44.634Z,11.60
2023-04-29T08:44:08.106Z,11.40
2023-04-29T08:56:31.087Z,11.90
2023-04-29T09:01:29.027Z,11.50
2023-04-29T09:04:17.943Z,11.50
2023-04-29T09:06:46.925Z,12.50
2023-04-29T09:11:42.872Z,11.80
2023-04-29T09:14:10.043Z,11.90
2023-04-29T09:19:06.322Z,11.80
2023-04-29T09:21:34.094Z,11.30
2023-04-29T09:24:03.012Z,11.50
2023-04-29T09:26:42.547Z,12.00
2023-04-29T09:29:14.511Z,12.00
2023-04-29T09:31:44.144Z,12.00
2023-04-29T09:34:12.599Z,11.80
2023-04-29T09:36:46.857Z,11.70
2023-04-29T09:39:21.225Z,11.80
2023-04-29T09:41:54.631Z,11.80
2023-04-29T09:44:23.857Z,11.90
2023-04-29T09:47:11.548Z,11.50
2023-04-29T09:49:42.164Z,12.10
2023-04-29T09:52:11.848Z,12.40
2023-04-29T09:54:41.231Z,11.90
2023-04-29T09:57:10.491Z,11.90
2023-04-29T09:59:40.484Z,12.10
2023-04-29T10:02:16.271Z,12.20
2023-04-29T10:04:47.178Z,12.50
2023-04-29T10:07:17.273Z,12.30
2023-04-29T10:09:47.653Z,12.40
2023-04-29T10:12:21.297Z,12.50
2023-04-29T10:14:55.617Z,12.60
2023-04-29T10:17:46.128Z,12.30
2023-04-29T10:20:22.979Z,12.30
2023-04-29T10:22:52.694Z,12.40
2023-04-29T10:25:21.525Z,12.70
2023-04-29T10:27:52.067Z,12.90
2023-04-29T10:30:20.753Z,11.80
2023-04-29T10:32:52.076Z,13.70
2023-04-29T10:35:23.762Z,12.80
2023-04-29T10:37:53.569Z,13.80
2023-04-29T10:40:40.307Z,13.30
2023-04-29T10:43:08.781Z,13.30
2023-04-29T10:45:36.614Z,14.00
2023-04-29T10:48:08.852Z,13.50
2023-04-29T10:50:48.918Z,13.40
2023-04-29T10:53:22.549Z,13.40
2023-04-29T10:55:58.915Z,13.00
2023-04-29T10:58:46.650Z,13.60
2023-04-29T11:01:16.796Z,13.60
2023-04-29T11:06:25.630Z,14.00
2023-04-29T11:09:03.862Z,13.60
2023-04-29T11:14:14.454Z,15.00
2023-04-29T11:16:51.706Z,14.00
2023-04-29T11:19:19.856Z,15.00
2023-04-29T11:24:17.862Z,16.20
2023-04-29T11:26:48.393Z,15.50
2023-04-29T11:29:21.840Z,16.80
2023-04-29T11:32:02.019Z,16.10
2023-04-29T11:34:32.036Z,17.00
2023-04-29T11:37:00.567Z,16.80
2023-04-29T11:42:07.678Z,17.80
2023-04-29T11:44:38.983Z,16.90
2023-04-29T11:47:12.243Z,17.10
2023-04-29T11:49:40.083Z,16.90
2023-04-29T11:52:08.372Z,16.20
2023-04-29T11:54:36.630Z,16.00
2023-04-29T11:57:05.476Z,16.60
2023-04-29T12:02:02.145Z,16.30
2023-04-29T12:04:32.812Z,16.30
2023-04-29T12:07:03.279Z,16.30
2023-04-29T12:09:43.398Z,16.40
2023-04-29T12:12:12.284Z,16.60
2023-04-29T12:14:42.446Z,16.60
2023-04-29T12:17:11.081Z,16.60
2023-04-29T12:19:40.514Z,16.80
2023-04-29T12:22:09.309Z,16.90
2023-04-29T12:24:41.332Z,17.20
2023-04-29T12:27:11.849Z,17.60
2023-04-29T12:29:43.550Z,17.90
2023-04-29T12:32:18.084Z,17.70
2023-04-29T12:34:47.874Z,17.70
2023-04-29T12:37:16.215Z,17.80
2023-04-29T12:39:46.514Z,17.70
2023-04-29T12:42:17.907Z,17.50
2023-04-29T12:44:49.706Z,17.20
2023-04-29T12:47:17.737Z,17.20
2023-04-29T12:49:47.305Z,16.80
2023-04-29T12:52:14.867Z,16.90
2023-04-29T12:54:44.145Z,16.90
2023-04-29T12:57:12.607Z,16.80
2023-04-29T12:59:43.601Z,16.90
2023-04-29T13:02:11.143Z,17.00
2023-04-29T13:04:40.116Z,17.20
2023-04-29T13:07:07.900Z,17.40
2023-04-29T13:09:38.276Z,17.50
2023-04-29T13:12:09.696Z,17.40
2023-04-29T13:14:37.592Z,17.50
2023-04-29T13:17:05.192Z,17.90
2023-04-29T13:19:48.178Z,18.20
2023-04-29T13:22:19.101Z,18.10
2023-04-29T13:24:47.124Z,18.10
2023-04-29T13:27:14.728Z,18.30
2023-04-29T13:29:42.820Z,18.30
2023-04-29T13:32:10.340Z,18.60
2023-04-29T13:34:38.243Z,18.60
2023-04-29T13:37:05.871Z,18.70
2023-04-29T13:39:37.891Z,18.70
2023-04-29T13:42:06.418Z,18.60
2023-04-29T13:45:00.306Z,18.50
2023-04-29T13:47:26.036Z,18.40
2023-04-29T13:50:32.854Z,18.60
2023-04-29T14:00:31.537Z,20.00
2023-04-29T14:03:02.356Z,19.90
2023-04-29T14:05:30.178Z,19.80
2023-04-29T14:07:57.648Z,20.20
2023-04-29T14:10:25.188Z,20.70
2023-04-29T14:12:52.367Z,21.50
2023-04-29T14:15:19.779Z,21.10
2023-04-29T14:17:47.119Z,20.40
2023-04-29T14:20:15.050Z,20.50
2023-04-29T14:22:42.259Z,20.20
2023-04-29T14:25:10.174Z,19.80
2023-04-29T14:27:37.630Z,19.90
2023-04-29T14:30:06.154Z,19.70
2023-04-29T14:32:34.282Z,19.70
2023-04-29T14:35:01.879Z,19.80
2023-04-29T14:37:29.246Z,19.90
2023-04-29T14:39:56.821Z,20.00
2023-04-29T14:42:24.741Z,20.50
2023-04-29T14:44:52.865Z,20.30
2023-04-29T14:47:20.519Z,19.90
2023-04-29T14:49:48.075Z,19.90
2023-04-29T14:52:15.435Z,20.10
2023-04-29T14:54:43.070Z,19.70
2023-04-29T14:57:10.907Z,19.50
2023-04-29T14:59:38.676Z,19.60
2023-04-29T15:02:06.168Z,19.70
2023-04-29T15:04:34.264Z,19.60
2023-04-29T15:07:02.370Z,19.50
2023-04-29T15:09:29.874Z,19.20
2023-04-29T15:11:57.254Z,19.00
2023-04-29T15:14:24.674Z,18.90
2023-04-29T15:16:51.931Z,18.60
2023-04-29T15:19:20.362Z,18.40
2023-04-29T15:21:47.496Z,18.30
2023-04-29T15:24:15.122Z,19.10
2023-04-29T15:26:42.717Z,18.00
2023-04-29T15:29:11.719Z,17.90
2023-04-29T15:31:39.413Z,17.80
2023-04-29T15:34:06.896Z,17.90
2023-04-29T15:36:34.783Z,17.80
2023-04-29T15:39:02.392Z,17.70
2023-04-29T15:41:29.784Z,17.70
2023-04-29T15:43:57.780Z,17.60
2023-04-29T15:46:25.102Z,17.50
2023-04-29T15:48:52.742Z,17.40
2023-04-29T15:51:20.169Z,17.30
2023-04-29T15:53:48.130Z,17.30
2023-04-29T15:56:15.450Z,17.20
2023-04-29T15:58:43.206Z,17.00
2023-04-29T16:01:10.439Z,16.80
2023-04-29T16:03:38.058Z,16.90
2023-04-29T16:06:05.508Z,17.00
2023-04-29T16:08:33.175Z,17.00
2023-04-29T16:11:00.432Z,17.10
2023-04-29T16:13:27.832Z,17.10
2023-04-29T16:15:55.487Z,17.20
2023-04-29T16:18:23.217Z,17.20
2023-04-29T16:20:52.243Z,17.10
2023-04-29T16:23:19.733Z,17.00
2023-04-29T16:25:47.089Z,16.90
2023-04-29T16:28:14.666Z,16.90
2023-04-29T16:30:41.850Z,16.80
2023-04-29T16:33:09.454Z,16.60
2023-04-29T16:35:37.284Z,16.60
2023-04-29T16:38:04.881Z,16.50
2023-04-29T16:40:32.157Z,16.50
2023-04-29T16:42:59.725Z,16.40
2023-04-29T16:45:27.285Z,16.40
2023-04-29T16:47:55.028Z,16.30
2023-04-29T16:50:22.360Z,16.10
2023-04-29T16:52:49.843Z,16.10
2023-04-29T16:55:17.303Z,15.90
2023-04-29T16:57:44.762Z,15.80
2023-04-29T17:00:12.396Z,15.80
2023-04-29T17:02:40.646Z,15.70
2023-04-29T17:05:09.168Z,15.60
2023-04-29T17:07:36.982Z,15.40
2023-04-29T17:10:05.275Z,15.40
2023-04-29T17:12:33.450Z,15.30
2023-04-29T17:15:01.266Z,15.30
2023-04-29T17:17:29.163Z,15.20
2023-04-29T17:19:56.749Z,15.10
2023-04-29T17:22:24.525Z,15.10
2023-04-29T17:24:52.276Z,15.00
2023-04-29T17:27:19.866Z,15.00
2023-04-29T17:29:47.122Z,14.90
2023-04-29T17:32:17.446Z,16.30
2023-04-29T17:34:44.803Z,14.90
2023-04-29T17:37:12.451Z,14.80
2023-04-29T17:39:39.772Z,14.80
2023-04-29T17:42:07.622Z,14.70
2023-04-29T17:44:36.949Z,14.70
2023-04-29T17:47:04.391Z,14.60
2023-04-29T17:49:31.663Z,14.60
2023-04-29T17:52:00.503Z,14.60
2023-04-29T17:54:29.326Z,14.60
2023-04-29T17:56:57.211Z,14.60
2023-04-29T17:59:25.077Z,14.50
2023-04-29T18:01:52.973Z,14.40
2023-04-29T18:04:20.232Z,14.30
2023-04-29T18:06:48.026Z,14.20
2023-04-29T18:09:15.246Z,14.20
2023-04-29T18:11:42.769Z,14.00
2023-04-29T18:14:10.293Z,13.90
2023-04-29T18:16:38.213Z,13.70
2023-04-29T18:19:05.567Z,13.50
2023-04-29T18:21:33.031Z,13.50
2023-04-29T18:24:00.346Z,13.30
2023-04-29T18:26:28.715Z,13.30
2023-04-29T18:28:55.891Z,13.30
2023-04-29T18:31:25.275Z,13.10
2023-04-29T18:33:52.648Z,12.90
2023-04-29T18:36:21.448Z,12.80
2023-04-29T18:38:48.877Z,12.60
2023-04-29T18:41:16.462Z,12.50
2023-04-29T18:43:43.762Z,12.30
2023-04-29T18:46:11.316Z,12.20
2023-04-29T18:48:40.654Z,12.00
2023-04-29T18:51:08.739Z,13.60
2023-04-29T18:53:35.948Z,12.00
2023-04-29T18:56:03.569Z,12.20
2023-04-29T18:58:30.797Z,11.80
2023-04-29T19:01:00.290Z,11.80
2023-04-29T19:03:27.732Z,11.70
2023-04-29T19:05:55.173Z,11.70
2023-04-29T19:08:22.515Z,11.70
2023-04-29T19:10:50.916Z,13.20
2023-04-29T19:13:18.593Z,11.60
2023-04-29T19:15:50.741Z,11.60
2023-04-29T19:18:20.348Z,11.60
2023-04-29T19:20:49.038Z,11.60
2023-04-29T19:23:17.075Z,11.50
2023-04-29T19:25:44.742Z,11.60
2023-04-29T19:28:12.090Z,11.60
2023-04-29T19:30:39.648Z,11.50
2023-04-29T19:33:07.071Z,11.50
2023-04-29T19:35:34.761Z,11.50
2023-04-29T19:38:02.620Z,11.50
2023-04-29T19:40:30.160Z,11.50
2023-04-29T19:42:57.678Z,11.50
2023-04-29T19:45:26.525Z,11.40
2023-04-29T19:47:55.094Z,11.30
2023-04-29T19:50:23.042Z,11.40
2023-04-29T19:52:50.683Z,11.30
2023-04-29T19:55:18.759Z,11.30
2023-04-29T19:57:46.248Z,11.30
2023-04-29T20:00:14.943Z,11.20
2023-04-29T20:02:42.701Z,11.30
2023-04-29T20:05:11.746Z,11.20
2023-04-29T20:07:39.584Z,11.30
2023-04-29T20:10:08.100Z,11.20
2023-04-29T20:12:36.071Z,11.30
2023-04-29T20:15:06.070Z,11.30
2023-04-29T20:17:33.732Z,11.30
2023-04-29T20:20:02.042Z,11.30
2023-04-29T20:22:29.785Z,11.20
2023-04-29T20:24:58.114Z,11.20
2023-04-29T20:27:25.669Z,11.20
2023-04-29T20:29:53.724Z,11.20
2023-04-29T20:32:22.014Z,11.20
2023-04-29T20:34:50.429Z,11.10
2023-04-29T20:37:20.035Z,11.20
2023-04-29T20:39:49.183Z,11.20
2023-04-29T20:42:17.176Z,11.20
2023-04-29T20:44:45.280Z,11.10
2023-04-29T20:47:12.746Z,11.20
2023-04-29T20:49:40.530Z,11.20
2023-04-29T20:52:08.071Z,11.20
2023-04-29T20:54:35.968Z,11.30
2023-04-29T20:57:06.334Z,11.20
2023-04-29T20:59:34.297Z,11.20
2023-04-29T21:02:02.237Z,11.10
2023-04-29T21:04:30.330Z,11.10
2023-04-29T21:06:58.029Z,11.10
2023-04-29T21:09:26.156Z,11.00
2023-04-29T21:11:53.704Z,11.00
2023-04-29T21:14:21.890Z,11.00
2023-04-29T21:16:49.480Z,10.90
2023-04-29T21:19:17.349Z,10.80
2023-04-29T21:21:45.014Z,10.80
2023-04-29T21:24:12.987Z,10.80
2023-04-29T21:26:40.267Z,10.60
2023-04-29T21:29:08.435Z,10.70
2023-04-29T21:31:35.937Z,10.60
2023-04-29T21:34:04.024Z,10.50
2023-04-29T21:36:32.247Z,10.40
2023-04-29T21:39:00.138Z,10.40
2023-04-29T21:41:31.979Z,10.20
2023-04-29T21:44:02.763Z,10.20
2023-04-29T21:46:33.612Z,10.10
2023-04-29T21:49:02.496Z,10.60
2023-04-29T21:51:30.248Z,9.90
2023-04-29T21:54:00.356Z,10.00
2023-04-29T21:56:27.803Z,10.00
2023-04-29T21:58:55.674Z,9.90
2023-04-29T22:01:27.449Z,9.90
2023-04-29T22:03:58.456Z,9.80
2023-04-29T22:06:26.062Z,9.80
2023-04-29T22:08:54.232Z,9.80
2023-04-29T22:11:22.307Z,9.80
2023-04-29T22:13:49.968Z,9.80
2023-04-29T22:16:19.061Z,9.80
2023-04-29T22:18:46.865Z,9.80
2023-04-29T22:21:14.296Z,9.80
2023-04-29T22:23:42.651Z,9.80
2023-04-29T22:26:09.891Z,10.90
2023-04-29T22:28:37.437Z,9.90
2023-04-29T22:31:04.938Z,9.70
2023-04-29T22:33:32.795Z,9.60
2023-04-29T22:36:00.144Z,9.60
2023-04-29T22:38:27.703Z,9.40
2023-04-29T22:40:55.020Z,9.40
2023-04-29T22:43:22.647Z,9.30
2023-04-29T22:45:57.058Z,9.20
2023-04-29T22:48:27.422Z,9.20
2023-04-29T22:50:56.854Z,9.10
2023-04-29T22:53:24.369Z,9.00
2023-04-29T22:55:52.481Z,9.00
2023-04-29T22:58:20.877Z,8.90
2023-04-29T23:00:54.367Z,8.80
2023-04-29T23:03:22.206Z,8.70
2023-04-29T23:05:50.241Z,8.70
2023-04-29T23:08:17.951Z,10.20
2023-04-29T23:10:51.968Z,9.30
2023-04-29T23:13:19.573Z,8.40
2023-04-29T23:15:46.876Z,8.40
2023-04-29T23:18:14.479Z,8.40
2023-04-29T23:20:41.719Z,8.30
2023-04-29T23:23:09.206Z,8.20
2023-04-29T23:25:36.394Z,8.20
2023-04-29T23:28:03.884Z,8.10
2023-04-29T23:30:32.761Z,8.00
2023-04-29T23:33:00.418Z,8.00
2023-04-29T23:35:27.743Z,9.50
2023-04-29T23:37:55.413Z,7.90
2023-04-29T23:40:22.840Z,7.80
2023-04-29T23:42:50.332Z,7.80
2023-04-29T23:45:17.616Z,7.70
2023-04-29T23:47:45.077Z,7.70
2023-04-29T23:50:12.358Z,7.50
2023-04-29T23:52:39.974Z,7.60
2023-04-29T23:55:07.790Z,7.30
2023-04-29T23:57:35.227Z,7.30
